sensor_id;sensor_type;location;lat;lon;timestamp;temperature;humidity
11855;DHT22;5987;53.140;8.904;2023-09-19T00:00:27;17.30;99.90
11855;DHT22;5987;53.140;8.904;2023-09-19T00:03:31;17.40;99.90
11855;DHT22;5987;53.140;8.904;2023-09-19T00:06:35;17.20;99.90
11855;DHT22;5987;53.140;8.904;2023-09-19T00:09:39;17.30;99.90
11855;DHT22;5987;53.140;8.904;2023-09-19T00:12:44;17.30;99.90
11855;DHT22;5987;53.140;8.904;2023-09-19T00:15:48;17.20;99.90
11855;DHT22;5987;53.140;8.904;2023-09-19T00:18:52;17.20;99.90
11855;DHT22;5987;53.140;8.904;2023-09-19T00:21:57;17.20;99.90
11855;DHT22;5987;53.140;8.904;2023-09-19T00:25:00;17.20;99.90
11855;DHT22;5987;53.140;8.904;2023-09-19T00:28:06;17.20;99.90
11855;DHT22;5987;53.140;8.904;2023-09-19T00:31:10;17.20;99.90
11855;DHT22;5987;53.140;8.904;2023-09-19T00:34:14;17.20;99.90
11855;DHT22;5987;53.140;8.904;2023-09-19T00:37:18;17.30;99.90
11855;DHT22;5987;53.140;8.904;2023-09-19T00:40:22;17.30;99.90
11855;DHT22;5987;53.140;8.904;2023-09-19T00:43:29;17.30;99.90
11855;DHT22;5987;53.140;8.904;2023-09-19T00:46:38;17.30;99.90
11855;DHT22;5987;53.140;8.904;2023-09-19T00:49:42;17.30;99.90
11855;DHT22;5987;53.140;8.904;2023-09-19T00:52:48;17.40;99.90
11855;DHT22;5987;53.140;8.904;2023-09-19T00:55:53;17.30;99.90
11855;DHT22;5987;53.140;8.904;2023-09-19T00:58:59;17.20;99.90
11855;DHT22;5987;53.140;8.904;2023-09-19T01:02:03;17.20;99.90
11855;DHT22;5987;53.140;8.904;2023-09-19T01:05:07;17.20;99.90
11855;DHT22;5987;53.140;8.904;2023-09-19T01:08:12;17.20;99.90
11855;DHT22;5987;53.140;8.904;2023-09-19T01:11:21;17.10;99.90
11855;DHT22;5987;53.140;8.904;2023-09-19T01:14:44;17.10;99.90
11855;DHT22;5987;53.140;8.904;2023-09-19T01:18:05;17.10;99.90
11855;DHT22;5987;53.140;8.904;2023-09-19T01:21:26;17.00;99.90
11855;DHT22;5987;53.140;8.904;2023-09-19T01:28:30;17.10;99.90
11855;DHT22;5987;53.140;8.904;2023-09-19T01:31:42;17.10;99.90
11855;DHT22;5987;53.140;8.904;2023-09-19T01:34:49;17.10;99.90
11855;DHT22;5987;53.140;8.904;2023-09-19T01:37:55;17.00;99.90
11855;DHT22;5987;53.140;8.904;2023-09-19T01:41:06;17.00;99.90
11855;DHT22;5987;53.140;8.904;2023-09-19T01:44:22;17.00;99.90
11855;DHT22;5987;53.140;8.904;2023-09-19T01:47:35;16.90;99.90
11855;DHT22;5987;53.140;8.904;2023-09-19T01:50:55;16.80;99.90
11855;DHT22;5987;53.140;8.904;2023-09-19T01:54:06;16.70;99.90
11855;DHT22;5987;53.140;8.904;2023-09-19T01:57:17;16.60;99.90
11855;DHT22;5987;53.140;8.904;2023-09-19T02:00:32;16.40;99.90
11855;DHT22;5987;53.140;8.904;2023-09-19T02:03:42;16.30;99.90
11855;DHT22;5987;53.140;8.904;2023-09-19T02:06:47;16.10;99.90
11855;DHT22;5987;53.140;8.904;2023-09-19T02:09:51;16.10;99.90
11855;DHT22;5987;53.140;8.904;2023-09-19T02:12:54;16.10;99.90
11855;DHT22;5987;53.140;8.904;2023-09-19T02:15:59;16.00;99.90
11855;DHT22;5987;53.140;8.904;2023-09-19T02:19:06;16.00;99.90
11855;DHT22;5987;53.140;8.904;2023-09-19T02:22:10;16.00;99.90
11855;DHT22;5987;53.140;8.904;2023-09-19T02:25:14;16.00;99.90
11855;DHT22;5987;53.140;8.904;2023-09-19T02:28:18;15.90;99.90
11855;DHT22;5987;53.140;8.904;2023-09-19T02:31:22;15.90;99.90
11855;DHT22;5987;53.140;8.904;2023-09-19T02:34:27;15.90;99.90
11855;DHT22;5987;53.140;8.904;2023-09-19T02:37:31;15.80;99.90
11855;DHT22;5987;53.140;8.904;2023-09-19T02:40:37;15.80;99.90
11855;DHT22;5987;53.140;8.904;2023-09-19T02:43:41;15.80;99.90
11855;DHT22;5987;53.140;8.904;2023-09-19T02:46:46;15.70;99.90
11855;DHT22;5987;53.140;8.904;2023-09-19T02:49:52;15.60;99.90
11855;DHT22;5987;53.140;8.904;2023-09-19T02:52:55;15.70;99.90
11855;DHT22;5987;53.140;8.904;2023-09-19T02:55:59;15.70;99.90
11855;DHT22;5987;53.140;8.904;2023-09-19T02:59:04;15.60;99.90
11855;DHT22;5987;53.140;8.904;2023-09-19T03:02:08;15.60;99.90
11855;DHT22;5987;53.140;8.904;2023-09-19T03:05:13;15.60;99.90
11855;DHT22;5987;53.140;8.904;2023-09-19T03:08:17;15.50;99.90
11855;DHT22;5987;53.140;8.904;2023-09-19T03:11:21;15.50;99.90
11855;DHT22;5987;53.140;8.904;2023-09-19T03:14:25;15.40;99.90
11855;DHT22;5987;53.140;8.904;2023-09-19T03:17:32;15.40;99.90
11855;DHT22;5987;53.140;8.904;2023-09-19T03:20:37;15.40;99.90
11855;DHT22;5987;53.140;8.904;2023-09-19T03:23:41;15.40;99.90
11855;DHT22;5987;53.140;8.904;2023-09-19T03:26:46;15.30;99.90
11855;DHT22;5987;53.140;8.904;2023-09-19T03:29:50;15.30;99.90
11855;DHT22;5987;53.140;8.904;2023-09-19T03:32:54;15.30;99.90
11855;DHT22;5987;53.140;8.904;2023-09-19T03:36:00;15.20;99.90
11855;DHT22;5987;53.140;8.904;2023-09-19T03:39:06;15.20;99.90
11855;DHT22;5987;53.140;8.904;2023-09-19T03:42:10;15.20;99.90
11855;DHT22;5987;53.140;8.904;2023-09-19T03:45:14;15.10;99.90
11855;DHT22;5987;53.140;8.904;2023-09-19T03:48:18;15.10;99.90
11855;DHT22;5987;53.140;8.904;2023-09-19T03:51:24;15.00;99.90
11855;DHT22;5987;53.140;8.904;2023-09-19T03:54:28;15.00;99.90
11855;DHT22;5987;53.140;8.904;2023-09-19T03:57:32;15.00;99.90
11855;DHT22;5987;53.140;8.904;2023-09-19T04:00:38;15.00;99.90
11855;DHT22;5987;53.140;8.904;2023-09-19T04:03:41;14.90;99.90
11855;DHT22;5987;53.140;8.904;2023-09-19T04:06:54;14.80;99.90
11855;DHT22;5987;53.140;8.904;2023-09-19T04:09:58;14.90;99.90
11855;DHT22;5987;53.140;8.904;2023-09-19T04:13:01;14.90;99.90
11855;DHT22;5987;53.140;8.904;2023-09-19T04:16:07;14.90;99.90
11855;DHT22;5987;53.140;8.904;2023-09-19T04:19:11;14.90;99.90
11855;DHT22;5987;53.140;8.904;2023-09-19T04:22:18;14.80;99.90
11855;DHT22;5987;53.140;8.904;2023-09-19T04:25:22;14.80;99.90
11855;DHT22;5987;53.140;8.904;2023-09-19T04:28:25;14.80;99.90
11855;DHT22;5987;53.140;8.904;2023-09-19T04:31:30;14.80;99.90
11855;DHT22;5987;53.140;8.904;2023-09-19T04:34:33;14.80;99.90
11855;DHT22;5987;53.140;8.904;2023-09-19T04:37:40;14.80;99.90
11855;DHT22;5987;53.140;8.904;2023-09-19T04:40:44;14.80;99.90
11855;DHT22;5987;53.140;8.904;2023-09-19T04:43:48;14.80;99.90
11855;DHT22;5987;53.140;8.904;2023-09-19T04:46:53;14.80;99.90
11855;DHT22;5987;53.140;8.904;2023-09-19T04:49:58;14.80;99.90
11855;DHT22;5987;53.140;8.904;2023-09-19T04:53:03;14.80;99.90
11855;DHT22;5987;53.140;8.904;2023-09-19T04:56:07;14.90;99.90
11855;DHT22;5987;53.140;8.904;2023-09-19T04:59:10;14.80;99.90
11855;DHT22;5987;53.140;8.904;2023-09-19T05:02:14;14.80;99.90
11855;DHT22;5987;53.140;8.904;2023-09-19T05:05:18;14.80;99.90
11855;DHT22;5987;53.140;8.904;2023-09-19T05:08:24;14.80;99.90
11855;DHT22;5987;53.140;8.904;2023-09-19T05:11:27;14.70;99.90
11855;DHT22;5987;53.140;8.904;2023-09-19T05:14:32;14.70;99.90
11855;DHT22;5987;53.140;8.904;2023-09-19T05:17:37;14.70;99.90
11855;DHT22;5987;53.140;8.904;2023-09-19T05:20:41;14.70;99.90
11855;DHT22;5987;53.140;8.904;2023-09-19T05:23:47;14.80;99.90
11855;DHT22;5987;53.140;8.904;2023-09-19T05:26:51;14.80;99.90
11855;DHT22;5987;53.140;8.904;2023-09-19T05:29:57;14.80;99.90
11855;DHT22;5987;53.140;8.904;2023-09-19T05:33:01;14.80;99.90
11855;DHT22;5987;53.140;8.904;2023-09-19T05:36:06;14.90;99.90
11855;DHT22;5987;53.140;8.904;2023-09-19T05:39:13;15.00;99.90
11855;DHT22;5987;53.140;8.904;2023-09-19T05:42:17;15.10;99.90
11855;DHT22;5987;53.140;8.904;2023-09-19T05:45:20;15.10;99.90
11855;DHT22;5987;53.140;8.904;2023-09-19T05:48:25;15.20;99.90
11855;DHT22;5987;53.140;8.904;2023-09-19T05:51:29;15.30;99.90
11855;DHT22;5987;53.140;8.904;2023-09-19T05:54:36;15.40;99.90
11855;DHT22;5987;53.140;8.904;2023-09-19T05:57:39;15.40;99.90
11855;DHT22;5987;53.140;8.904;2023-09-19T06:00:44;15.40;99.90
11855;DHT22;5987;53.140;8.904;2023-09-19T06:03:50;15.50;99.90
11855;DHT22;5987;53.140;8.904;2023-09-19T06:06:55;15.60;99.90
11855;DHT22;5987;53.140;8.904;2023-09-19T06:10:00;15.60;99.90
11855;DHT22;5987;53.140;8.904;2023-09-19T06:13:04;15.70;99.90
11855;DHT22;5987;53.140;8.904;2023-09-19T06:16:08;15.80;99.90
11855;DHT22;5987;53.140;8.904;2023-09-19T06:19:12;15.90;99.90
11855;DHT22;5987;53.140;8.904;2023-09-19T06:22:16;15.80;99.90
11855;DHT22;5987;53.140;8.904;2023-09-19T06:25:22;15.80;99.90
11855;DHT22;5987;53.140;8.904;2023-09-19T06:28:26;15.90;99.90
11855;DHT22;5987;53.140;8.904;2023-09-19T06:31:30;15.80;99.90
11855;DHT22;5987;53.140;8.904;2023-09-19T06:34:34;15.80;99.90
11855;DHT22;5987;53.140;8.904;2023-09-19T06:37:39;15.80;99.90
11855;DHT22;5987;53.140;8.904;2023-09-19T06:40:45;15.80;99.90
11855;DHT22;5987;53.140;8.904;2023-09-19T06:43:49;15.90;99.90
11855;DHT22;5987;53.140;8.904;2023-09-19T06:46:55;15.90;99.90
11855;DHT22;5987;53.140;8.904;2023-09-19T06:49:58;16.00;99.90
11855;DHT22;5987;53.140;8.904;2023-09-19T06:53:04;16.00;99.90
11855;DHT22;5987;53.140;8.904;2023-09-19T06:56:09;16.00;99.90
11855;DHT22;5987;53.140;8.904;2023-09-19T06:59:13;16.00;99.90
11855;DHT22;5987;53.140;8.904;2023-09-19T07:02:18;16.00;99.90
11855;DHT22;5987;53.140;8.904;2023-09-19T07:05:24;16.00;99.90
11855;DHT22;5987;53.140;8.904;2023-09-19T07:08:29;15.90;99.90
11855;DHT22;5987;53.140;8.904;2023-09-19T07:11:34;16.00;99.90
11855;DHT22;5987;53.140;8.904;2023-09-19T07:14:39;16.00;99.90
11855;DHT22;5987;53.140;8.904;2023-09-19T07:17:42;16.10;99.90
11855;DHT22;5987;53.140;8.904;2023-09-19T07:20:47;16.20;99.90
11855;DHT22;5987;53.140;8.904;2023-09-19T07:23:52;16.30;99.90
11855;DHT22;5987;53.140;8.904;2023-09-19T07:26:57;16.50;99.90
11855;DHT22;5987;53.140;8.904;2023-09-19T07:30:01;16.70;99.90
11855;DHT22;5987;53.140;8.904;2023-09-19T07:33:05;16.90;99.90
11855;DHT22;5987;53.140;8.904;2023-09-19T07:36:12;16.80;99.90
11855;DHT22;5987;53.140;8.904;2023-09-19T07:39:16;16.80;99.90
11855;DHT22;5987;53.140;8.904;2023-09-19T07:42:26;16.80;99.90
11855;DHT22;5987;53.140;8.904;2023-09-19T07:45:30;17.00;99.90
11855;DHT22;5987;53.140;8.904;2023-09-19T07:48:33;17.10;99.90
11855;DHT22;5987;53.140;8.904;2023-09-19T07:51:38;17.30;99.90
11855;DHT22;5987;53.140;8.904;2023-09-19T07:54:42;17.50;99.90
11855;DHT22;5987;53.140;8.904;2023-09-19T07:57:48;17.50;99.90
11855;DHT22;5987;53.140;8.904;2023-09-19T08:00:52;17.50;99.90
11855;DHT22;5987;53.140;8.904;2023-09-19T08:03:56;17.50;99.90
11855;DHT22;5987;53.140;8.904;2023-09-19T08:07:01;17.70;99.90
11855;DHT22;5987;53.140;8.904;2023-09-19T08:10:07;17.70;99.90
11855;DHT22;5987;53.140;8.904;2023-09-19T08:13:16;17.80;99.90
11855;DHT22;5987;53.140;8.904;2023-09-19T08:16:20;17.90;99.90
11855;DHT22;5987;53.140;8.904;2023-09-19T08:19:26;17.90;99.90
11855;DHT22;5987;53.140;8.904;2023-09-19T08:22:33;18.10;99.90
11855;DHT22;5987;53.140;8.904;2023-09-19T08:25:37;18.40;99.90
11855;DHT22;5987;53.140;8.904;2023-09-19T08:28:43;18.50;99.90
11855;DHT22;5987;53.140;8.904;2023-09-19T08:31:47;18.40;99.90
11855;DHT22;5987;53.140;8.904;2023-09-19T08:34:53;18.30;99.90
11855;DHT22;5987;53.140;8.904;2023-09-19T08:37:57;18.30;99.90
11855;DHT22;5987;53.140;8.904;2023-09-19T08:41:06;18.30;99.90
11855;DHT22;5987;53.140;8.904;2023-09-19T08:44:12;18.20;99.90
11855;DHT22;5987;53.140;8.904;2023-09-19T08:47:19;18.10;99.90
11855;DHT22;5987;53.140;8.904;2023-09-19T08:50:42;18.10;99.90
11855;DHT22;5987;53.140;8.904;2023-09-19T08:53:52;18.20;99.90
11855;DHT22;5987;53.140;8.904;2023-09-19T08:57:06;18.40;99.90
11855;DHT22;5987;53.140;8.904;2023-09-19T09:00:15;18.60;99.90
11855;DHT22;5987;53.140;8.904;2023-09-19T09:03:22;18.70;99.90
11855;DHT22;5987;53.140;8.904;2023-09-19T09:06:29;18.80;99.90
11855;DHT22;5987;53.140;8.904;2023-09-19T09:09:35;18.90;99.90
11855;DHT22;5987;53.140;8.904;2023-09-19T09:12:38;18.90;99.90
11855;DHT22;5987;53.140;8.904;2023-09-19T09:15:44;18.80;99.90
11855;DHT22;5987;53.140;8.904;2023-09-19T09:18:49;18.90;99.90
11855;DHT22;5987;53.140;8.904;2023-09-19T09:22:06;18.90;99.90
11855;DHT22;5987;53.140;8.904;2023-09-19T09:25:11;19.00;99.90
11855;DHT22;5987;53.140;8.904;2023-09-19T09:28:19;18.90;99.90
11855;DHT22;5987;53.140;8.904;2023-09-19T09:31:25;18.70;99.90
11855;DHT22;5987;53.140;8.904;2023-09-19T09:34:33;18.70;99.90
11855;DHT22;5987;53.140;8.904;2023-09-19T09:37:36;19.00;99.90
11855;DHT22;5987;53.140;8.904;2023-09-19T09:40:48;19.00;99.90
11855;DHT22;5987;53.140;8.904;2023-09-19T09:44:12;18.90;99.90
11855;DHT22;5987;53.140;8.904;2023-09-19T09:47:46;18.90;99.90
11855;DHT22;5987;53.140;8.904;2023-09-19T09:50:57;19.20;99.90
11855;DHT22;5987;53.140;8.904;2023-09-19T09:54:12;19.30;99.90
11855;DHT22;5987;53.140;8.904;2023-09-19T09:57:17;19.30;99.90
11855;DHT22;5987;53.140;8.904;2023-09-19T10:00:25;19.40;99.90
11855;DHT22;5987;53.140;8.904;2023-09-19T10:03:37;19.40;99.90
11855;DHT22;5987;53.140;8.904;2023-09-19T10:06:44;19.50;99.90
11855;DHT22;5987;53.140;8.904;2023-09-19T10:09:51;19.40;99.90
11855;DHT22;5987;53.140;8.904;2023-09-19T10:12:59;19.50;99.90
11855;DHT22;5987;53.140;8.904;2023-09-19T10:16:06;19.40;99.90
11855;DHT22;5987;53.140;8.904;2023-09-19T10:19:20;19.40;99.90
11855;DHT22;5987;53.140;8.904;2023-09-19T10:22:28;19.10;99.90
11855;DHT22;5987;53.140;8.904;2023-09-19T10:25:37;18.80;99.90
11855;DHT22;5987;53.140;8.904;2023-09-19T10:28:42;18.70;99.90
11855;DHT22;5987;53.140;8.904;2023-09-19T10:31:47;18.50;99.90
11855;DHT22;5987;53.140;8.904;2023-09-19T10:34:54;18.40;99.90
11855;DHT22;5987;53.140;8.904;2023-09-19T10:38:01;18.50;99.90
11855;DHT22;5987;53.140;8.904;2023-09-19T10:41:06;18.50;99.90
11855;DHT22;5987;53.140;8.904;2023-09-19T10:44:13;18.70;99.90
11855;DHT22;5987;53.140;8.904;2023-09-19T10:47:20;18.90;99.90
11855;DHT22;5987;53.140;8.904;2023-09-19T10:50:30;18.80;99.90
11855;DHT22;5987;53.140;8.904;2023-09-19T10:53:43;18.80;99.90
11855;DHT22;5987;53.140;8.904;2023-09-19T10:56:51;19.00;99.90
11855;DHT22;5987;53.140;8.904;2023-09-19T11:00:03;19.30;99.90
11855;DHT22;5987;53.140;8.904;2023-09-19T11:03:23;19.50;99.90
11855;DHT22;5987;53.140;8.904;2023-09-19T11:06:33;19.40;99.90
11855;DHT22;5987;53.140;8.904;2023-09-19T11:09:47;19.50;99.90
11855;DHT22;5987;53.140;8.904;2023-09-19T11:12:55;19.50;99.90
11855;DHT22;5987;53.140;8.904;2023-09-19T11:16:03;19.40;99.90
11855;DHT22;5987;53.140;8.904;2023-09-19T11:19:08;19.30;99.90
11855;DHT22;5987;53.140;8.904;2023-09-19T11:22:14;19.40;99.90
11855;DHT22;5987;53.140;8.904;2023-09-19T11:25:41;19.50;99.90
11855;DHT22;5987;53.140;8.904;2023-09-19T11:29:24;19.60;99.90
11855;DHT22;5987;53.140;8.904;2023-09-19T11:36:35;19.40;99.90
11855;DHT22;5987;53.140;8.904;2023-09-19T11:40:08;19.50;99.90
11855;DHT22;5987;53.140;8.904;2023-09-19T11:43:31;19.70;99.90
11855;DHT22;5987;53.140;8.904;2023-09-19T11:46:52;19.50;99.90
11855;DHT22;5987;53.140;8.904;2023-09-19T11:49:57;19.60;99.90
11855;DHT22;5987;53.140;8.904;2023-09-19T11:53:01;19.60;99.90
11855;DHT22;5987;53.140;8.904;2023-09-19T11:56:09;19.70;99.90
11855;DHT22;5987;53.140;8.904;2023-09-19T11:59:20;19.80;99.90
11855;DHT22;5987;53.140;8.904;2023-09-19T12:02:37;19.80;99.90
11855;DHT22;5987;53.140;8.904;2023-09-19T12:05:45;19.70;99.90
11855;DHT22;5987;53.140;8.904;2023-09-19T12:08:49;19.80;99.90
11855;DHT22;5987;53.140;8.904;2023-09-19T12:11:57;19.80;99.90
11855;DHT22;5987;53.140;8.904;2023-09-19T12:15:01;19.80;99.90
11855;DHT22;5987;53.140;8.904;2023-09-19T12:18:06;19.70;99.90
11855;DHT22;5987;53.140;8.904;2023-09-19T12:21:24;19.60;99.90
11855;DHT22;5987;53.140;8.904;2023-09-19T12:24:33;19.60;99.90
11855;DHT22;5987;53.140;8.904;2023-09-19T12:27:47;19.70;99.90
11855;DHT22;5987;53.140;8.904;2023-09-19T12:30:52;19.80;99.90
11855;DHT22;5987;53.140;8.904;2023-09-19T12:33:57;19.90;99.90
11855;DHT22;5987;53.140;8.904;2023-09-19T12:37:05;19.90;99.90
11855;DHT22;5987;53.140;8.904;2023-09-19T12:40:17;20.00;99.90
11855;DHT22;5987;53.140;8.904;2023-09-19T12:43:29;20.00;99.90
11855;DHT22;5987;53.140;8.904;2023-09-19T12:46:37;20.00;99.90
11855;DHT22;5987;53.140;8.904;2023-09-19T12:50:07;20.00;99.90
11855;DHT22;5987;53.140;8.904;2023-09-19T12:53:25;20.00;99.90
11855;DHT22;5987;53.140;8.904;2023-09-19T12:56:39;19.90;99.90
11855;DHT22;5987;53.140;8.904;2023-09-19T12:59:52;20.10;99.90
11855;DHT22;5987;53.140;8.904;2023-09-19T13:03:13;20.20;99.90
11855;DHT22;5987;53.140;8.904;2023-09-19T13:06:35;20.30;99.90
11855;DHT22;5987;53.140;8.904;2023-09-19T13:10:03;20.40;99.90
11855;DHT22;5987;53.140;8.904;2023-09-19T13:13:23;20.30;99.90
11855;DHT22;5987;53.140;8.904;2023-09-19T13:16:32;20.50;99.90
11855;DHT22;5987;53.140;8.904;2023-09-19T13:19:37;20.40;99.90
11855;DHT22;5987;53.140;8.904;2023-09-19T13:22:43;20.40;99.90
11855;DHT22;5987;53.140;8.904;2023-09-19T13:25:52;20.40;99.90
11855;DHT22;5987;53.140;8.904;2023-09-19T13:28:56;20.30;99.90
11855;DHT22;5987;53.140;8.904;2023-09-19T13:32:02;20.20;99.90
11855;DHT22;5987;53.140;8.904;2023-09-19T13:35:07;20.20;99.90
11855;DHT22;5987;53.140;8.904;2023-09-19T13:38:11;20.50;99.90
11855;DHT22;5987;53.140;8.904;2023-09-19T13:41:15;20.50;99.90
11855;DHT22;5987;53.140;8.904;2023-09-19T13:44:19;20.40;99.90
11855;DHT22;5987;53.140;8.904;2023-09-19T13:47:24;20.50;99.90
11855;DHT22;5987;53.140;8.904;2023-09-19T13:50:29;20.60;99.90
11855;DHT22;5987;53.140;8.904;2023-09-19T13:53:33;20.60;99.90
11855;DHT22;5987;53.140;8.904;2023-09-19T13:56:37;20.50;99.90
11855;DHT22;5987;53.140;8.904;2023-09-19T13:59:41;20.50;99.90
11855;DHT22;5987;53.140;8.904;2023-09-19T14:02:46;20.60;99.90
11855;DHT22;5987;53.140;8.904;2023-09-19T14:05:51;20.60;99.90
11855;DHT22;5987;53.140;8.904;2023-09-19T14:08:55;20.70;99.90
11855;DHT22;5987;53.140;8.904;2023-09-19T14:11:58;20.70;99.90
11855;DHT22;5987;53.140;8.904;2023-09-19T14:15:03;20.80;99.90
11855;DHT22;5987;53.140;8.904;2023-09-19T14:18:08;20.90;99.90
11855;DHT22;5987;53.140;8.904;2023-09-19T14:21:12;20.90;99.90
11855;DHT22;5987;53.140;8.904;2023-09-19T14:24:17;20.80;99.90
11855;DHT22;5987;53.140;8.904;2023-09-19T14:27:21;20.70;99.90
11855;DHT22;5987;53.140;8.904;2023-09-19T14:30:25;20.60;99.90
11855;DHT22;5987;53.140;8.904;2023-09-19T14:33:31;20.60;99.90
11855;DHT22;5987;53.140;8.904;2023-09-19T14:36:35;20.60;99.90
11855;DHT22;5987;53.140;8.904;2023-09-19T14:39:44;20.30;99.90
11855;DHT22;5987;53.140;8.904;2023-09-19T14:42:48;20.30;99.90
11855;DHT22;5987;53.140;8.904;2023-09-19T14:45:54;20.20;99.90
11855;DHT22;5987;53.140;8.904;2023-09-19T14:49:00;20.10;99.90
11855;DHT22;5987;53.140;8.904;2023-09-19T14:52:07;20.10;99.90
11855;DHT22;5987;53.140;8.904;2023-09-19T14:55:14;20.20;99.90
11855;DHT22;5987;53.140;8.904;2023-09-19T14:58:18;20.20;99.90
11855;DHT22;5987;53.140;8.904;2023-09-19T15:01:23;20.20;99.90
11855;DHT22;5987;53.140;8.904;2023-09-19T15:04:28;20.30;99.90
11855;DHT22;5987;53.140;8.904;2023-09-19T15:07:33;20.40;99.90
11855;DHT22;5987;53.140;8.904;2023-09-19T15:10:38;20.20;99.90
11855;DHT22;5987;53.140;8.904;2023-09-19T15:13:42;20.10;99.90
11855;DHT22;5987;53.140;8.904;2023-09-19T15:16:47;20.10;99.90
11855;DHT22;5987;53.140;8.904;2023-09-19T15:19:53;20.00;99.90
11855;DHT22;5987;53.140;8.904;2023-09-19T15:22:57;20.00;99.90
11855;DHT22;5987;53.140;8.904;2023-09-19T15:26:02;19.90;99.90
11855;DHT22;5987;53.140;8.904;2023-09-19T15:29:06;19.90;99.90
11855;DHT22;5987;53.140;8.904;2023-09-19T15:32:11;19.90;99.90
11855;DHT22;5987;53.140;8.904;2023-09-19T15:35:16;19.90;99.90
11855;DHT22;5987;53.140;8.904;2023-09-19T15:38:20;19.80;99.90
11855;DHT22;5987;53.140;8.904;2023-09-19T15:41:24;19.70;99.90
11855;DHT22;5987;53.140;8.904;2023-09-19T15:44:28;19.70;99.90
11855;DHT22;5987;53.140;8.904;2023-09-19T15:47:32;19.80;99.90
11855;DHT22;5987;53.140;8.904;2023-09-19T15:50:38;19.80;99.90
11855;DHT22;5987;53.140;8.904;2023-09-19T15:53:45;19.70;99.90
11855;DHT22;5987;53.140;8.904;2023-09-19T15:56:50;19.70;99.90
11855;DHT22;5987;53.140;8.904;2023-09-19T15:59:54;19.60;99.90
11855;DHT22;5987;53.140;8.904;2023-09-19T16:03:00;19.60;99.90
11855;DHT22;5987;53.140;8.904;2023-09-19T16:06:09;19.60;99.90
11855;DHT22;5987;53.140;8.904;2023-09-19T16:09:14;19.60;99.90
11855;DHT22;5987;53.140;8.904;2023-09-19T16:12:18;19.60;99.90
11855;DHT22;5987;53.140;8.904;2023-09-19T16:15:22;19.60;99.90
11855;DHT22;5987;53.140;8.904;2023-09-19T16:18:27;19.60;99.90
11855;DHT22;5987;53.140;8.904;2023-09-19T16:21:37;19.60;99.90
11855;DHT22;5987;53.140;8.904;2023-09-19T16:24:46;19.60;99.90
11855;DHT22;5987;53.140;8.904;2023-09-19T16:27:51;19.60;99.90
11855;DHT22;5987;53.140;8.904;2023-09-19T16:30:58;19.60;99.90
11855;DHT22;5987;53.140;8.904;2023-09-19T16:34:04;19.50;99.90
11855;DHT22;5987;53.140;8.904;2023-09-19T16:37:09;19.50;99.90
11855;DHT22;5987;53.140;8.904;2023-09-19T16:40:12;19.50;99.90
11855;DHT22;5987;53.140;8.904;2023-09-19T16:43:16;19.50;99.90
11855;DHT22;5987;53.140;8.904;2023-09-19T16:46:20;19.50;99.90
11855;DHT22;5987;53.140;8.904;2023-09-19T16:49:24;19.50;99.90
11855;DHT22;5987;53.140;8.904;2023-09-19T16:52:29;19.40;99.90
11855;DHT22;5987;53.140;8.904;2023-09-19T16:55:33;19.40;99.90
11855;DHT22;5987;53.140;8.904;2023-09-19T16:58:38;19.40;99.90
11855;DHT22;5987;53.140;8.904;2023-09-19T17:01:44;19.40;99.90
11855;DHT22;5987;53.140;8.904;2023-09-19T17:04:48;19.30;99.90
11855;DHT22;5987;53.140;8.904;2023-09-19T17:07:55;19.30;99.90
11855;DHT22;5987;53.140;8.904;2023-09-19T17:11:03;19.30;99.90
11855;DHT22;5987;53.140;8.904;2023-09-19T17:14:10;19.40;99.90
11855;DHT22;5987;53.140;8.904;2023-09-19T17:17:16;19.30;99.90
11855;DHT22;5987;53.140;8.904;2023-09-19T17:20:20;19.30;99.90
11855;DHT22;5987;53.140;8.904;2023-09-19T17:23:26;19.30;99.90
11855;DHT22;5987;53.140;8.904;2023-09-19T17:26:30;19.30;99.90
11855;DHT22;5987;53.140;8.904;2023-09-19T17:29:35;19.30;99.90
11855;DHT22;5987;53.140;8.904;2023-09-19T17:32:39;19.30;99.90
11855;DHT22;5987;53.140;8.904;2023-09-19T17:35:43;19.20;99.90
11855;DHT22;5987;53.140;8.904;2023-09-19T17:38:51;19.30;99.90
11855;DHT22;5987;53.140;8.904;2023-09-19T17:41:56;19.30;99.90
11855;DHT22;5987;53.140;8.904;2023-09-19T17:45:00;19.20;99.90
11855;DHT22;5987;53.140;8.904;2023-09-19T17:48:04;19.20;99.90
11855;DHT22;5987;53.140;8.904;2023-09-19T17:51:09;19.20;99.90
11855;DHT22;5987;53.140;8.904;2023-09-19T17:54:14;19.20;99.90
11855;DHT22;5987;53.140;8.904;2023-09-19T17:57:18;19.20;99.90
11855;DHT22;5987;53.140;8.904;2023-09-19T18:00:22;19.10;99.90
11855;DHT22;5987;53.140;8.904;2023-09-19T18:03:25;19.10;99.90
11855;DHT22;5987;53.140;8.904;2023-09-19T18:06:31;19.20;99.90
11855;DHT22;5987;53.140;8.904;2023-09-19T18:09:36;19.20;99.90
11855;DHT22;5987;53.140;8.904;2023-09-19T18:12:40;19.20;99.90
11855;DHT22;5987;53.140;8.904;2023-09-19T18:15:45;19.20;99.90
11855;DHT22;5987;53.140;8.904;2023-09-19T18:18:49;19.20;99.90
11855;DHT22;5987;53.140;8.904;2023-09-19T18:21:54;19.10;99.90
11855;DHT22;5987;53.140;8.904;2023-09-19T18:25:03;19.10;99.90
11855;DHT22;5987;53.140;8.904;2023-09-19T18:28:08;19.10;99.90
11855;DHT22;5987;53.140;8.904;2023-09-19T18:31:12;19.20;99.90
11855;DHT22;5987;53.140;8.904;2023-09-19T18:34:16;19.20;99.90
11855;DHT22;5987;53.140;8.904;2023-09-19T18:37:20;19.20;99.90
11855;DHT22;5987;53.140;8.904;2023-09-19T18:40:27;19.20;99.90
11855;DHT22;5987;53.140;8.904;2023-09-19T18:43:30;19.20;99.90
11855;DHT22;5987;53.140;8.904;2023-09-19T18:46:35;19.20;99.90
11855;DHT22;5987;53.140;8.904;2023-09-19T18:49:42;19.20;99.90
11855;DHT22;5987;53.140;8.904;2023-09-19T18:52:46;19.20;99.90
11855;DHT22;5987;53.140;8.904;2023-09-19T18:56:02;19.10;99.90
11855;DHT22;5987;53.140;8.904;2023-09-19T18:59:07;19.10;99.90
11855;DHT22;5987;53.140;8.904;2023-09-19T19:02:12;19.10;99.90
11855;DHT22;5987;53.140;8.904;2023-09-19T19:05:16;19.00;99.90
11855;DHT22;5987;53.140;8.904;2023-09-19T19:08:20;19.00;99.90
11855;DHT22;5987;53.140;8.904;2023-09-19T19:11:26;19.00;99.90
11855;DHT22;5987;53.140;8.904;2023-09-19T19:14:32;19.00;99.90
11855;DHT22;5987;53.140;8.904;2023-09-19T19:17:36;19.10;99.90
11855;DHT22;5987;53.140;8.904;2023-09-19T19:20:40;19.10;99.90
11855;DHT22;5987;53.140;8.904;2023-09-19T19:23:44;19.10;99.90
11855;DHT22;5987;53.140;8.904;2023-09-19T19:26:49;19.00;99.90
11855;DHT22;5987;53.140;8.904;2023-09-19T19:29:53;19.00;99.90
11855;DHT22;5987;53.140;8.904;2023-09-19T19:32:57;19.00;99.90
11855;DHT22;5987;53.140;8.904;2023-09-19T19:36:04;19.00;99.90
11855;DHT22;5987;53.140;8.904;2023-09-19T19:39:09;19.00;99.90
11855;DHT22;5987;53.140;8.904;2023-09-19T19:42:16;18.90;99.90
11855;DHT22;5987;53.140;8.904;2023-09-19T19:45:20;18.90;99.90
11855;DHT22;5987;53.140;8.904;2023-09-19T19:48:24;18.90;99.90
11855;DHT22;5987;53.140;8.904;2023-09-19T19:51:28;18.90;99.90
11855;DHT22;5987;53.140;8.904;2023-09-19T19:54:32;19.00;99.90
11855;DHT22;5987;53.140;8.904;2023-09-19T19:57:37;18.90;99.90
11855;DHT22;5987;53.140;8.904;2023-09-19T20:00:42;18.90;99.90
11855;DHT22;5987;53.140;8.904;2023-09-19T20:03:46;18.80;99.90